createdAt,value
2024-03-19T07:55:08.377Z,45.00
2024-03-19T07:56:07.493Z,39.38
2024-03-19T07:57:07.374Z,56.25
2024-03-19T07:58:08.683Z,45.00
2024-03-19T07:59:07.125Z,33.75
2024-03-19T08:00:07.044Z,56.25
2024-03-19T08:01:06.917Z,39.38
2024-03-19T08:02:06.825Z,28.13
2024-03-19T08:03:06.744Z,33.75
2024-03-19T08:04:06.672Z,61.88
2024-03-19T08:05:06.670Z,39.38
2024-03-19T08:06:06.501Z,45.00
2024-03-19T08:07:06.425Z,50.63
2024-03-19T08:08:06.333Z,61.88
2024-03-19T08:09:06.249Z,73.13
2024-03-19T08:10:06.185Z,78.75
2024-03-19T08:11:06.088Z,84.38
2024-03-19T08:12:06.018Z,84.38
2024-03-19T08:13:05.918Z,84.38
2024-03-19T08:14:05.834Z,101.25
2024-03-19T08:15:05.751Z,168.75
2024-03-19T08:16:05.666Z,174.38
2024-03-19T08:17:05.588Z,180.00
2024-03-19T08:18:05.511Z,157.50
2024-03-19T08:19:05.423Z,140.63
2024-03-19T08:20:05.336Z,174.38
2024-03-19T08:21:05.257Z,163.13
2024-03-19T08:22:05.165Z,146.25
2024-03-19T08:23:05.099Z,168.75
2024-03-19T08:24:05.006Z,168.75
2024-03-19T08:25:04.922Z,174.38
2024-03-19T08:26:04.984Z,180.00
2024-03-19T08:27:04.848Z,180.00
2024-03-19T08:28:04.683Z,174.38
2024-03-19T08:29:04.591Z,180.00
2024-03-19T08:30:05.590Z,180.00
2024-03-19T08:31:06.357Z,185.63
2024-03-19T08:32:04.355Z,185.63
2024-03-19T08:33:04.259Z,185.63
2024-03-19T08:34:04.187Z,185.63
2024-03-19T08:35:04.099Z,185.63
2024-03-19T08:36:04.011Z,180.00
2024-03-19T08:37:03.931Z,185.63
2024-03-19T08:38:03.852Z,185.63
2024-03-19T08:39:03.782Z,191.25
2024-03-19T08:40:03.687Z,191.25
2024-03-19T08:41:03.604Z,196.88
2024-03-19T08:42:05.912Z,196.88
2024-03-19T08:43:03.442Z,196.88
2024-03-19T08:44:03.362Z,196.88
2024-03-19T08:45:03.278Z,196.88
2024-03-19T08:46:03.208Z,196.88
2024-03-19T08:47:03.117Z,202.50
2024-03-19T08:48:03.043Z,202.50
2024-03-19T08:49:02.993Z,202.50
2024-03-19T08:50:02.874Z,202.50
2024-03-19T08:51:02.792Z,202.50
2024-03-19T08:52:02.712Z,202.50
2024-03-19T08:53:02.630Z,202.50
2024-03-19T08:54:02.547Z,202.50
2024-03-19T08:55:02.470Z,196.88
2024-03-19T08:56:02.406Z,196.88
2024-03-19T08:57:02.306Z,202.50
2024-03-19T08:58:02.219Z,196.88
2024-03-19T08:59:02.146Z,196.88
2024-03-19T09:00:02.092Z,196.88
2024-03-19T09:01:01.976Z,202.50
2024-03-19T09:02:01.912Z,202.50
2024-03-19T09:03:01.853Z,202.50
2024-03-19T09:04:01.740Z,202.50
2024-03-19T09:05:01.673Z,208.13
2024-03-19T09:06:01.623Z,208.13
2024-03-19T09:07:01.501Z,208.13
2024-03-19T09:08:01.532Z,208.13
2024-03-19T09:09:01.377Z,202.50
2024-03-19T09:10:01.273Z,202.50
2024-03-19T09:11:01.186Z,202.50
2024-03-19T09:12:01.100Z,208.13
2024-03-19T09:13:01.024Z,208.13
2024-03-19T09:14:00.947Z,208.13
2024-03-19T09:15:00.863Z,208.13
2024-03-19T09:16:00.780Z,208.13
2024-03-19T09:17:00.701Z,208.13
2024-03-19T09:18:00.630Z,208.13
2024-03-19T09:19:00.571Z,208.13
2024-03-19T09:20:00.479Z,208.13
2024-03-19T09:21:00.385Z,208.13
2024-03-19T09:22:00.309Z,208.13
2024-03-19T09:23:00.229Z,202.50
2024-03-19T09:24:01.947Z,202.50
2024-03-19T09:25:03.271Z,191.25
2024-03-19T09:26:00.888Z,202.50
2024-03-19T09:27:00.226Z,202.50
2024-03-19T09:28:00.335Z,196.88
2024-03-19T09:28:59.906Z,202.50
2024-03-19T09:30:00.464Z,202.50
2024-03-19T09:31:00.150Z,202.50
2024-03-19T09:31:59.881Z,202.50
2024-03-19T09:33:00.268Z,202.50
2024-03-19T09:33:59.989Z,202.50
2024-03-19T09:35:00.017Z,202.50
2024-03-19T09:35:59.358Z,202.50
2024-03-19T09:36:59.660Z,202.50
2024-03-19T09:37:59.519Z,202.50
2024-03-19T09:38:59.110Z,196.88
2024-03-19T09:39:59.983Z,196.88
2024-03-19T09:40:59.072Z,196.88
2024-03-19T09:41:59.224Z,202.50
2024-03-19T09:42:58.713Z,202.50
2024-03-19T09:43:59.960Z,196.88
2024-03-19T09:44:58.638Z,196.88
2024-03-19T09:45:58.524Z,202.50
2024-03-19T09:46:59.079Z,202.50
2024-03-19T09:47:59.680Z,202.50
